Terminal Aerodrome Forecast
Issued by NWS

Home | Current Version | Previous Version | Text Only | Print | Product List | Glossary On
Versions: 1 2 3 4 5 6 7 8 9 10 11 12 13 14
000
FTUS43 KUNR 310500
TAFGCC
TAF
KGCC 310520Z 3106/0106 18007KT P6SM SCT200
      TEMPO 3106/3110 5SM BR BKN008
     FM311000 18020G30KT 5SM BR OVC008
     FM311600 18030G40KT P6SM BKN200=

USA.gov is the U.S. government's official web portal to all federal, state and local government web resources and services.